This is the latest recevied weather packets stored in our database for station/object IW2LSY-11. If no packets are shown the sender has not sent any weather packets the latest 10 day(s).
| Time | Temp. | Humidity | Pressure | Rain* | Wind** | Luminosity | Snow |
|---|---|---|---|---|---|---|---|
| 1777794010 | 20.56° C | 40% | 1019.7 hPa | - | - | 453 W/m² | - |
| 1777793411 | 20.56° C | 42% | 1019.9 hPa | - | - | 454 W/m² | - |
| 1777792811 | 20.56° C | 40% | 1020 hPa | - | - | 455 W/m² | - |
| 1777792211 | 21.11° C | 39% | 1020.1 hPa | - | - | 455 W/m² | - |
| 1777791611 | 20° C | 42% | 1020.3 hPa | - | - | 455 W/m² | - |
| 1777791012 | 17.78° C | 47% | 1020.4 hPa | - | - | 456 W/m² | - |
| 1777790412 | 17.22° C | 50% | 1020.4 hPa | - | - | 456 W/m² | - |
| 1777789813 | 16.67° C | 49% | 1020.5 hPa | - | - | 456 W/m² | - |
| 1777789213 | 16.67° C | 51% | 1020.7 hPa | - | - | 458 W/m² | - |
| 1777788613 | 12.78° C | 63% | 1020.9 hPa | - | - | 458 W/m² | - |
| 1777788013 | 14.44° C | 56% | 1020.8 hPa | - | - | 458 W/m² | - |
| 1777787414 | 16.11° C | 52% | 1020.8 hPa | - | - | 458 W/m² | - |
| 1777786814 | 15° C | 55% | 1020.9 hPa | - | - | 459 W/m² | - |
| 1777786214 | 15° C | 57% | 1021 hPa | - | - | 460 W/m² | - |
| 1777785615 | 13.89° C | 60% | 1020.9 hPa | - | - | 460 W/m² | - |
| 1777785004 | 13.33° C | 63% | 1021 hPa | - | - | 460 W/m² | - |
| 1777784404 | 11.67° C | 69% | 1021.1 hPa | - | - | 460 W/m² | - |
| 1777783804 | 10.56° C | 76% | 1021.2 hPa | - | - | 460 W/m² | - |
| 1777783204 | 10.56° C | 76% | 1021.2 hPa | - | - | 461 W/m² | - |
| 1777782605 | 10.56° C | 77% | 1021.1 hPa | - | - | 462 W/m² | - |
| 1777782004 | 10° C | 80% | 1021.1 hPa | - | - | 463 W/m² | - |
| 1777781405 | 10° C | 81% | 1021.1 hPa | - | - | 464 W/m² | - |
| 1777780805 | 8.89° C | 86% | 1021.1 hPa | - | - | 465 W/m² | - |
| 1777780205 | 9.44° C | 84% | 1021.2 hPa | - | - | 465 W/m² | - |
| 1777779605 | 10° C | 81% | 1021.3 hPa | - | - | 466 W/m² | - |
* Rain since midnight (hover to see other rain measurements)
** Current wind speed in m/s (hover to see current wind gust speed)